createdAt,value
2022-10-02T00:01:28.760Z,5.83
2022-10-02T00:03:58.990Z,6.03
2022-10-02T00:06:41.236Z,5.37
2022-10-02T00:09:17.142Z,5.40
2022-10-02T00:11:48.841Z,5.77
2022-10-02T00:14:21.329Z,5.87
2022-10-02T00:16:54.853Z,4.87
2022-10-02T00:19:23.019Z,5.43
2022-10-02T00:22:20.326Z,5.30
2022-10-02T00:24:54.622Z,5.70
2022-10-02T00:27:50.930Z,5.70
2022-10-02T00:30:19.930Z,5.80
2022-10-02T00:33:06.102Z,6.67
2022-10-02T00:35:56.980Z,6.40
2022-10-02T00:38:39.076Z,7.37
2022-10-02T00:41:24.054Z,6.23
2022-10-02T00:44:15.700Z,6.47
2022-10-02T00:46:53.806Z,5.80
2022-10-02T00:49:52.095Z,5.60
2022-10-02T00:52:43.014Z,7.10
2022-10-02T00:55:34.723Z,6.27
2022-10-02T00:58:34.561Z,7.03
2022-10-02T01:01:09.843Z,6.57
2022-10-02T01:03:41.391Z,6.30
2022-10-02T01:06:13.127Z,7.30
2022-10-02T01:08:41.836Z,6.50
2022-10-02T01:11:10.072Z,6.53
2022-10-02T01:13:38.267Z,6.60
2022-10-02T01:16:12.145Z,6.57
2022-10-02T01:18:40.612Z,6.10
2022-10-02T01:21:14.219Z,6.07
2022-10-02T01:23:52.990Z,6.23
2022-10-02T01:26:22.494Z,5.83
2022-10-02T01:28:51.242Z,5.57
2022-10-02T01:31:19.466Z,6.00
2022-10-02T01:33:49.850Z,5.57
2022-10-02T01:36:18.574Z,6.03
2022-10-02T01:38:49.244Z,5.97
2022-10-02T01:41:17.308Z,6.27
2022-10-02T01:43:50.286Z,6.80
2022-10-02T01:46:33.077Z,6.30
2022-10-02T01:49:21.113Z,6.27
2022-10-02T01:52:14.377Z,6.20
2022-10-02T01:54:57.876Z,5.63
2022-10-02T01:57:39.263Z,5.17
2022-10-02T02:00:12.435Z,6.40
2022-10-02T02:02:53.463Z,6.30
2022-10-02T02:05:41.602Z,5.30
2022-10-02T02:08:16.780Z,5.47
2022-10-02T02:10:53.178Z,5.57
2022-10-02T02:13:27.736Z,5.30
2022-10-02T02:16:05.458Z,5.33
2022-10-02T02:18:40.521Z,5.20
2022-10-02T02:21:16.312Z,4.70
2022-10-02T02:23:45.327Z,4.13
2022-10-02T02:26:16.875Z,4.60
2022-10-02T02:28:51.450Z,4.63
2022-10-02T02:31:26.264Z,5.17
2022-10-02T02:33:59.473Z,4.00
2022-10-02T02:36:35.622Z,4.70
2022-10-02T02:39:09.137Z,4.30
2022-10-02T02:41:43.180Z,4.37
2022-10-02T02:44:18.517Z,4.77
2022-10-02T02:47:06.678Z,4.87
2022-10-02T02:49:51.221Z,4.37
2022-10-02T02:52:23.871Z,4.40
2022-10-02T02:54:57.440Z,3.93
2022-10-02T02:57:33.423Z,4.30
2022-10-02T03:00:04.007Z,4.20
2022-10-02T03:02:33.703Z,3.63
2022-10-02T03:05:01.877Z,4.37
2022-10-02T03:07:30.169Z,4.20
2022-10-02T03:10:07.615Z,4.53
2022-10-02T03:12:53.344Z,3.90
2022-10-02T03:15:30.095Z,4.27
2022-10-02T03:18:28.159Z,4.80
2022-10-02T03:21:09.360Z,4.00
2022-10-02T03:23:54.187Z,4.23
2022-10-02T03:26:36.508Z,4.33
2022-10-02T03:29:12.351Z,4.87
2022-10-02T03:31:41.616Z,4.67
2022-10-02T03:34:11.402Z,4.70
2022-10-02T03:36:39.796Z,5.47
2022-10-02T03:39:25.864Z,4.37
2022-10-02T03:41:54.884Z,4.63
2022-10-02T03:44:22.977Z,4.30
2022-10-02T03:46:51.072Z,4.60
2022-10-02T03:49:20.860Z,5.17
2022-10-02T03:51:49.335Z,4.27
2022-10-02T03:54:21.160Z,5.60
2022-10-02T03:56:56.985Z,4.33
2022-10-02T03:59:38.350Z,4.30
2022-10-02T04:02:12.678Z,4.23
2022-10-02T04:04:49.225Z,4.13
2022-10-02T04:07:22.965Z,4.63
2022-10-02T04:09:58.985Z,4.93
2022-10-02T04:12:34.663Z,4.33
2022-10-02T04:15:10.744Z,4.97
2022-10-02T04:17:45.222Z,4.57
2022-10-02T04:20:21.349Z,4.97
2022-10-02T04:22:55.908Z,4.33
2022-10-02T04:25:27.923Z,4.20
2022-10-02T04:28:00.738Z,4.23
2022-10-02T04:30:30.086Z,5.30
2022-10-02T04:32:59.639Z,4.37
2022-10-02T04:35:37.279Z,4.47
2022-10-02T04:38:33.286Z,4.43
2022-10-02T04:41:26.150Z,4.10
2022-10-02T04:44:09.058Z,4.80
2022-10-02T04:46:58.742Z,4.10
2022-10-02T04:49:57.060Z,4.53
2022-10-02T04:52:52.421Z,4.50
2022-10-02T04:55:53.777Z,4.53
2022-10-02T04:58:49.567Z,4.40
2022-10-02T05:01:31.087Z,4.37
2022-10-02T05:04:30.893Z,4.30
2022-10-02T05:07:17.018Z,3.40
2022-10-02T05:09:58.438Z,3.93
2022-10-02T05:12:48.836Z,4.00
2022-10-02T05:15:54.456Z,3.63
2022-10-02T05:18:46.997Z,4.23
2022-10-02T05:21:31.855Z,3.57
2022-10-02T05:24:18.066Z,3.30
2022-10-02T05:27:08.362Z,4.00
2022-10-02T05:29:59.009Z,3.77
2022-10-02T05:33:04.279Z,3.50
2022-10-02T05:36:09.566Z,4.50
2022-10-02T05:39:02.299Z,3.50
2022-10-02T05:41:40.823Z,3.70
2022-10-02T05:44:16.580Z,3.40
2022-10-02T05:46:50.814Z,3.83
2022-10-02T05:49:22.350Z,3.73
2022-10-02T05:52:00.615Z,3.97
2022-10-02T05:54:44.452Z,3.90
2022-10-02T05:57:22.465Z,3.47
2022-10-02T06:00:04.142Z,3.33
2022-10-02T06:02:42.436Z,3.47
2022-10-02T06:05:18.900Z,3.50
2022-10-02T06:07:51.041Z,3.00
2022-10-02T06:10:23.054Z,3.50
2022-10-02T06:12:58.237Z,3.67
2022-10-02T06:15:33.764Z,3.50
2022-10-02T06:18:07.695Z,3.40
2022-10-02T06:20:42.759Z,3.40
2022-10-02T06:23:16.433Z,3.93
2022-10-02T06:25:49.097Z,3.80
2022-10-02T06:28:23.751Z,4.03
2022-10-02T06:31:02.804Z,3.73
2022-10-02T06:33:34.019Z,3.27
2022-10-02T06:36:30.114Z,3.90
2022-10-02T06:39:28.027Z,3.73
2022-10-02T06:42:07.833Z,3.73
2022-10-02T06:44:47.520Z,3.90
2022-10-02T06:47:35.363Z,3.60
2022-10-02T06:50:24.661Z,3.80
2022-10-02T06:53:00.806Z,3.90
2022-10-02T06:55:43.448Z,3.73
2022-10-02T06:58:35.513Z,3.33
2022-10-02T07:01:12.842Z,3.27
2022-10-02T07:04:00.704Z,3.50
2022-10-02T07:06:43.730Z,3.50
2022-10-02T07:09:52.473Z,3.37
2022-10-02T07:12:54.013Z,3.27
2022-10-02T07:16:13.934Z,3.57
2022-10-02T07:19:11.882Z,3.77
2022-10-02T07:21:52.008Z,3.50
2022-10-02T07:24:45.784Z,3.67
2022-10-02T07:27:21.019Z,3.40
2022-10-02T07:29:59.372Z,3.40
2022-10-02T07:32:47.394Z,3.60
2022-10-02T07:35:42.263Z,3.10
2022-10-02T07:38:44.088Z,3.10
2022-10-02T07:41:40.957Z,2.80
2022-10-02T07:44:37.136Z,4.53
2022-10-02T07:47:19.097Z,3.43
2022-10-02T07:49:58.265Z,3.40
2022-10-02T07:52:39.687Z,3.40
2022-10-02T07:55:20.262Z,3.13
2022-10-02T07:58:01.599Z,3.10
2022-10-02T08:00:36.643Z,3.23
2022-10-02T08:03:13.619Z,3.83
2022-10-02T08:05:45.574Z,2.70
2022-10-02T08:08:23.129Z,3.17
2022-10-02T08:10:57.634Z,3.37
2022-10-02T08:13:32.848Z,3.07
2022-10-02T08:16:04.627Z,3.53
2022-10-02T08:18:37.369Z,3.20
2022-10-02T08:21:11.701Z,3.23
2022-10-02T08:23:48.465Z,3.27
2022-10-02T08:26:22.300Z,3.40
2022-10-02T08:29:01.161Z,4.17
2022-10-02T08:31:29.517Z,4.60
2022-10-02T08:33:58.533Z,3.30
2022-10-02T08:36:48.927Z,3.47
2022-10-02T08:40:01.481Z,3.20
2022-10-02T08:43:17.435Z,2.57
2022-10-02T08:46:24.901Z,2.67
2022-10-02T08:49:34.449Z,3.00
2022-10-02T08:52:53.662Z,2.87
2022-10-02T08:55:58.949Z,2.77
2022-10-02T08:59:08.709Z,3.80
2022-10-02T09:02:27.613Z,2.80
2022-10-02T09:05:43.059Z,3.20
2022-10-02T09:08:44.918Z,3.23
2022-10-02T09:12:13.022Z,3.43
2022-10-02T09:14:55.614Z,3.33
2022-10-02T09:17:49.633Z,3.30
2022-10-02T09:21:11.415Z,3.83
2022-10-02T09:24:43.233Z,3.60
2022-10-02T09:28:10.144Z,3.23
2022-10-02T09:31:33.266Z,3.10
2022-10-02T09:35:02.078Z,3.40
2022-10-02T09:38:21.165Z,3.30
2022-10-02T09:41:38.989Z,3.40
2022-10-02T09:45:00.410Z,3.53
2022-10-02T09:48:31.145Z,3.00
2022-10-02T09:51:41.794Z,2.97
2022-10-02T09:54:47.234Z,3.03
2022-10-02T09:57:55.394Z,2.83
2022-10-02T10:01:12.669Z,3.40
2022-10-02T10:05:04.468Z,3.20
2022-10-02T10:08:23.197Z,2.50
2022-10-02T10:11:17.250Z,2.70
2022-10-02T10:14:34.830Z,2.70
2022-10-02T10:17:56.075Z,2.70
2022-10-02T10:21:07.734Z,3.20
2022-10-02T10:24:15.666Z,2.43
2022-10-02T10:27:08.096Z,2.80
2022-10-02T10:30:08.636Z,2.73
2022-10-02T10:33:28.084Z,2.87
2022-10-02T10:37:01.242Z,3.03
2022-10-02T10:40:10.346Z,2.73
2022-10-02T10:43:16.885Z,2.63
2022-10-02T10:46:18.177Z,2.70
2022-10-02T10:49:18.272Z,2.63
2022-10-02T10:51:54.287Z,3.20
2022-10-02T10:54:58.242Z,3.10
2022-10-02T10:57:51.922Z,2.70
2022-10-02T11:00:23.503Z,2.27
2022-10-02T11:03:46.323Z,3.30
2022-10-02T11:06:51.809Z,2.53
2022-10-02T11:10:26.072Z,2.40
2022-10-02T11:13:19.178Z,2.50
2022-10-02T11:16:26.095Z,1.93
2022-10-02T11:19:34.393Z,2.60
2022-10-02T11:22:41.986Z,2.37
2022-10-02T11:25:58.145Z,2.47
2022-10-02T11:29:09.263Z,2.73
2022-10-02T11:32:14.328Z,2.37
2022-10-02T11:35:16.980Z,2.17
2022-10-02T11:38:13.085Z,2.07
2022-10-02T11:41:07.592Z,2.70
2022-10-02T11:44:06.371Z,2.17
2022-10-02T11:47:01.997Z,2.23
2022-10-02T11:50:37.445Z,2.17
2022-10-02T11:54:03.126Z,1.93
2022-10-02T11:56:46.449Z,2.23
2022-10-02T11:59:40.556Z,2.30
2022-10-02T12:02:16.933Z,2.00
2022-10-02T12:05:15.629Z,2.20
2022-10-02T12:07:53.315Z,1.83
2022-10-02T12:10:42.049Z,3.10
2022-10-02T12:13:47.081Z,2.17
2022-10-02T12:16:26.641Z,2.13
2022-10-02T12:19:12.779Z,2.10
2022-10-02T12:22:14.982Z,1.87
2022-10-02T12:25:16.193Z,1.87
2022-10-02T12:27:58.366Z,2.40
2022-10-02T12:30:36.159Z,2.50
2022-10-02T12:33:32.255Z,1.80
2022-10-02T12:36:27.749Z,2.10
2022-10-02T12:39:12.923Z,2.10
2022-10-02T12:42:12.239Z,1.97
2022-10-02T12:45:12.711Z,2.20
2022-10-02T12:47:57.018Z,1.80
2022-10-02T12:51:02.151Z,2.00
2022-10-02T12:54:09.597Z,1.77
2022-10-02T12:57:39.354Z,1.50
2022-10-02T13:00:15.728Z,1.63
2022-10-02T13:03:36.945Z,1.55
2022-10-02T13:06:45.381Z,2.50
2022-10-02T13:09:36.397Z,2.05
2022-10-02T13:12:41.020Z,1.48
2022-10-02T13:15:37.320Z,1.67
2022-10-02T13:18:25.454Z,1.95
2022-10-02T13:21:04.271Z,2.05
2022-10-02T13:23:42.539Z,1.90
2022-10-02T13:26:22.338Z,2.17
2022-10-02T13:29:32.972Z,2.47
2022-10-02T13:32:46.962Z,2.67
2022-10-02T13:35:44.305Z,2.77
2022-10-02T13:38:43.922Z,3.17
2022-10-02T13:41:26.645Z,2.07
2022-10-02T13:44:08.961Z,2.33
2022-10-02T13:47:20.863Z,2.13
2022-10-02T13:50:17.800Z,2.05
2022-10-02T13:53:13.458Z,2.03
2022-10-02T13:55:47.093Z,2.20
2022-10-02T13:58:37.225Z,2.10
2022-10-02T14:01:20.591Z,2.20
2022-10-02T14:04:11.410Z,2.40
2022-10-02T14:06:45.946Z,2.10
2022-10-02T14:09:39.547Z,2.30
2022-10-02T14:12:37.642Z,2.23
2022-10-02T14:15:33.625Z,2.60
2022-10-02T14:18:46.721Z,2.20
2022-10-02T14:21:31.231Z,1.80
2022-10-02T14:24:45.938Z,2.80
2022-10-02T14:27:40.996Z,2.67
2022-10-02T14:30:24.234Z,1.87
2022-10-02T14:33:07.905Z,2.20
2022-10-02T14:35:49.171Z,2.57
2022-10-02T14:38:41.571Z,2.23
2022-10-02T14:41:37.955Z,2.30
2022-10-02T14:44:52.138Z,2.77
2022-10-02T14:47:56.264Z,2.43
2022-10-02T14:50:57.223Z,2.17
2022-10-02T14:54:19.999Z,1.80
2022-10-02T14:57:17.363Z,2.13
2022-10-02T15:00:18.566Z,2.03
2022-10-02T15:04:07.010Z,2.20
2022-10-02T15:07:00.827Z,2.20
2022-10-02T15:09:40.368Z,2.77
2022-10-02T15:12:21.255Z,2.30
2022-10-02T15:15:12.804Z,2.00
2022-10-02T15:17:56.613Z,3.17
2022-10-02T15:20:40.641Z,2.13
2022-10-02T15:23:16.896Z,2.07
2022-10-02T15:26:14.298Z,2.27
2022-10-02T15:28:56.623Z,2.13
2022-10-02T15:31:38.208Z,2.13
2022-10-02T15:34:20.192Z,2.30
2022-10-02T15:37:14.087Z,2.77
2022-10-02T15:40:06.428Z,2.10
2022-10-02T15:42:56.170Z,2.20
2022-10-02T15:45:59.702Z,2.60
2022-10-02T15:49:02.205Z,2.53
2022-10-02T15:52:00.989Z,3.03
2022-10-02T15:54:51.630Z,2.80
2022-10-02T15:57:44.470Z,2.40
2022-10-02T16:00:23.848Z,2.17
2022-10-02T16:03:02.994Z,2.47
2022-10-02T16:05:56.485Z,2.53
2022-10-02T16:08:57.067Z,1.93
2022-10-02T16:12:05.110Z,2.30
2022-10-02T16:14:45.915Z,2.50
2022-10-02T16:17:47.034Z,2.50
2022-10-02T16:20:41.450Z,2.30
2022-10-02T16:23:30.341Z,2.63
2022-10-02T16:26:28.189Z,2.47
2022-10-02T16:29:17.115Z,2.87
2022-10-02T16:32:02.173Z,2.40
2022-10-02T16:34:45.684Z,2.33
2022-10-02T16:37:25.106Z,3.07
2022-10-02T16:40:00.662Z,2.87
2022-10-02T16:42:42.446Z,3.30
2022-10-02T16:45:43.499Z,2.97
2022-10-02T16:48:16.410Z,2.33
2022-10-02T16:51:13.715Z,3.10
2022-10-02T16:53:49.121Z,2.53
2022-10-02T16:56:24.614Z,2.27
2022-10-02T16:59:01.617Z,2.40
2022-10-02T17:01:35.914Z,2.53
2022-10-02T17:04:22.090Z,3.03
2022-10-02T17:07:00.113Z,3.27
2022-10-02T17:09:39.864Z,2.93
2022-10-02T17:12:21.108Z,2.50
2022-10-02T17:14:57.210Z,2.23
2022-10-02T17:17:34.914Z,2.50
2022-10-02T17:20:18.310Z,3.00
2022-10-02T17:22:58.402Z,2.17
2022-10-02T17:25:33.104Z,2.83
2022-10-02T17:28:09.606Z,2.70
2022-10-02T17:30:58.526Z,2.97
2022-10-02T17:33:32.335Z,4.40
2022-10-02T17:36:12.902Z,7.20
2022-10-02T17:39:14.987Z,7.70
2022-10-02T17:41:53.014Z,4.20
2022-10-02T17:44:47.492Z,3.30
2022-10-02T17:47:38.799Z,2.80
2022-10-02T17:50:32.418Z,3.33
2022-10-02T17:53:34.616Z,3.10
2022-10-02T17:56:28.968Z,2.80
2022-10-02T17:59:56.020Z,2.87
2022-10-02T18:03:00.452Z,2.87
2022-10-02T18:05:39.712Z,3.03
2022-10-02T18:08:30.603Z,3.73
2022-10-02T18:11:08.948Z,3.93
2022-10-02T18:13:58.677Z,3.50
2022-10-02T18:16:40.825Z,3.63
2022-10-02T18:19:27.682Z,4.20
2022-10-02T18:22:22.161Z,3.73
2022-10-02T18:25:19.302Z,3.73
2022-10-02T18:28:18.837Z,4.47
2022-10-02T18:30:58.867Z,4.03
2022-10-02T18:34:21.573Z,3.30
2022-10-02T18:37:10.475Z,3.87
2022-10-02T18:39:44.951Z,3.97
2022-10-02T18:42:41.050Z,3.57
2022-10-02T18:45:34.901Z,3.43
2022-10-02T18:48:23.344Z,3.67
2022-10-02T18:51:16.677Z,3.77
2022-10-02T18:54:05.230Z,3.87
2022-10-02T18:56:55.910Z,3.97
2022-10-02T18:59:41.575Z,3.07
2022-10-02T19:02:27.347Z,3.27
2022-10-02T19:05:25.755Z,3.73
2022-10-02T19:08:08.755Z,3.10
2022-10-02T19:10:47.526Z,2.93
2022-10-02T19:13:25.046Z,3.63
2022-10-02T19:15:59.018Z,3.20
2022-10-02T19:18:31.268Z,2.97
2022-10-02T19:21:06.672Z,4.00
2022-10-02T19:23:39.794Z,3.77
2022-10-02T19:26:19.015Z,3.10
2022-10-02T19:28:50.843Z,3.63
2022-10-02T19:31:24.241Z,3.43
2022-10-02T19:33:57.310Z,4.10
2022-10-02T19:36:28.286Z,3.67
2022-10-02T19:39:01.366Z,3.80
2022-10-02T19:41:35.369Z,3.83
2022-10-02T19:44:07.164Z,3.80
2022-10-02T19:46:39.693Z,3.30
2022-10-02T19:49:20.291Z,3.20
2022-10-02T19:51:48.861Z,3.80
2022-10-02T19:54:21.820Z,4.00
2022-10-02T19:56:55.037Z,4.03
2022-10-02T19:59:29.629Z,4.37
2022-10-02T20:02:03.615Z,3.50
2022-10-02T20:04:33.670Z,3.43
2022-10-02T20:07:02.993Z,4.00
2022-10-02T20:09:37.383Z,3.53
2022-10-02T20:12:11.847Z,3.17
2022-10-02T20:14:44.970Z,4.83
2022-10-02T20:17:13.885Z,4.30
2022-10-02T20:19:48.240Z,3.80
2022-10-02T20:22:24.985Z,4.17
2022-10-02T20:24:59.514Z,3.00
2022-10-02T20:27:39.467Z,3.80
2022-10-02T20:30:14.512Z,3.70
2022-10-02T20:32:51.216Z,3.40
2022-10-02T20:35:29.138Z,3.90
2022-10-02T20:38:02.106Z,3.60
2022-10-02T20:40:36.825Z,3.90
2022-10-02T20:43:09.887Z,3.47
2022-10-02T20:45:47.050Z,3.93
2022-10-02T20:49:07.933Z,3.83
2022-10-02T20:52:14.973Z,3.70
2022-10-02T20:54:54.045Z,3.40
2022-10-02T20:58:04.625Z,4.30
2022-10-02T21:00:52.071Z,4.27
2022-10-02T21:03:56.722Z,8.83
2022-10-02T21:07:07.061Z,11.40
2022-10-02T21:10:28.490Z,7.53
2022-10-02T21:13:48.392Z,4.20
2022-10-02T21:16:49.872Z,3.50
2022-10-02T21:19:41.804Z,3.87
2022-10-02T21:23:01.405Z,4.83
2022-10-02T21:26:18.084Z,3.70
2022-10-02T21:29:36.797Z,3.57
2022-10-02T21:32:51.084Z,3.80
2022-10-02T21:35:41.193Z,4.00
2022-10-02T21:38:52.748Z,4.80
2022-10-02T21:42:18.462Z,4.30
2022-10-02T21:45:35.118Z,3.50
2022-10-02T21:49:05.889Z,3.70
2022-10-02T21:52:07.445Z,3.77
2022-10-02T21:55:39.460Z,4.57
2022-10-02T21:59:08.005Z,4.30
2022-10-02T22:02:09.286Z,3.70
2022-10-02T22:05:22.663Z,3.77
2022-10-02T22:08:01.005Z,3.50
2022-10-02T22:10:36.906Z,3.10
2022-10-02T22:13:23.254Z,3.50
2022-10-02T22:16:05.064Z,4.00
2022-10-02T22:18:47.848Z,4.90
2022-10-02T22:21:36.519Z,4.57
2022-10-02T22:24:25.232Z,4.20
2022-10-02T22:27:12.633Z,4.13
2022-10-02T22:29:51.151Z,4.03
2022-10-02T22:33:07.282Z,3.07
2022-10-02T22:36:11.801Z,3.37
2022-10-02T22:38:45.426Z,3.90
2022-10-02T22:41:27.358Z,3.73
2022-10-02T22:44:00.022Z,3.67
2022-10-02T22:46:46.979Z,3.57
2022-10-02T22:49:24.576Z,4.63
2022-10-02T22:52:01.311Z,3.63
2022-10-02T22:54:40.025Z,3.67
2022-10-02T22:57:19.240Z,4.33
2022-10-02T22:59:55.668Z,3.40
2022-10-02T23:02:32.449Z,4.20
2022-10-02T23:05:10.909Z,3.77
2022-10-02T23:07:49.590Z,3.30
2022-10-02T23:10:30.102Z,3.40
2022-10-02T23:13:06.534Z,4.43
2022-10-02T23:15:43.217Z,3.90
2022-10-02T23:18:32.345Z,3.83
2022-10-02T23:21:11.946Z,3.60
2022-10-02T23:23:50.920Z,3.80
2022-10-02T23:26:28.644Z,4.50
2022-10-02T23:29:14.979Z,3.80
2022-10-02T23:31:52.854Z,3.27
2022-10-02T23:34:36.331Z,3.47
2022-10-02T23:37:18.751Z,3.93
2022-10-02T23:39:55.628Z,3.27
2022-10-02T23:42:32.979Z,3.83
2022-10-02T23:45:08.319Z,3.40
2022-10-02T23:47:54.769Z,3.83
2022-10-02T23:50:29.554Z,4.30
2022-10-02T23:53:38.599Z,3.40
2022-10-02T23:56:24.296Z,2.83
2022-10-02T23:59:12.557Z,3.50
